Weather at Belleview Landing Airport

Public forecast

Using degrees Fahrenheit for public forecast. Weather courtesy of forecast.io.

Closest aviation weather report (METAR) to Belleview Landing Airport

Closest report is Coffeyville Municipal Airport, 11.0 nm (20.4 km) N. Retrieved 2021/01/22 02:52 UTC (20 minutes ago):

KCFV 220252Z AUTO 00000KT 10SM CLR 04/01 A2997 RMK AO2 SLP153 T00390011 51016

Closest aviation forecast (TAF) to Belleview Landing Airport

Closest forecast is Bartlesville Municipal Airport, 21.6 nm (40.0 km) WSW. Retrieved 2021-01-22 00:36 UTC (3 hours ago):

TAF KBVO 212334Z 2200/2224 02004KT P6SM SCT150 BKN250 FM220600 04010KT P6SM BKN120 FM221500 05011G18KT P6SM SCT150